createdAt,value
2022-11-28T00:00:27.840Z,83.42
2022-11-28T00:02:57.855Z,82.84
2022-11-28T00:05:27.447Z,82.78
2022-11-28T00:07:57.666Z,82.78
2022-11-28T00:10:27.393Z,83.64
2022-11-28T00:12:57.178Z,83.06
2022-11-28T00:15:26.610Z,83.30
2022-11-28T00:17:56.342Z,82.50
2022-11-28T00:20:26.144Z,82.26
2022-11-28T00:22:55.881Z,82.39
2022-11-28T00:25:25.617Z,82.08
2022-11-28T00:27:55.659Z,81.58
2022-11-28T00:30:25.982Z,82.00
2022-11-28T00:32:55.741Z,82.44
2022-11-28T00:35:25.509Z,82.44
2022-11-28T00:37:55.247Z,81.58
2022-11-28T00:40:25.015Z,82.17
2022-11-28T00:42:55.034Z,82.48
2022-11-28T00:45:24.654Z,81.83
2022-11-28T00:47:54.713Z,82.86
2022-11-28T00:50:24.475Z,82.92
2022-11-28T00:52:54.225Z,82.68
2022-11-28T00:55:23.954Z,82.87
2022-11-28T00:57:55.137Z,82.66
2022-11-28T01:00:24.636Z,81.94
2022-11-28T01:02:54.855Z,82.70
2022-11-28T01:05:24.578Z,82.41
2022-11-28T01:07:54.688Z,83.03
2022-11-28T01:10:24.468Z,81.94
2022-11-28T01:12:54.174Z,82.44
2022-11-28T01:15:23.994Z,83.11
2022-11-28T01:17:53.717Z,83.45
2022-11-28T01:20:23.452Z,83.24
2022-11-28T01:22:53.201Z,82.35
2022-11-28T01:25:22.868Z,82.46
2022-11-28T01:27:52.737Z,82.18
2022-11-28T01:30:22.533Z,82.43
2022-11-28T01:32:52.625Z,82.02
2022-11-28T01:35:22.494Z,81.92
2022-11-28T01:37:52.518Z,82.09
2022-11-28T01:40:22.588Z,82.09
2022-11-28T01:42:52.140Z,82.15
2022-11-28T01:45:30.477Z,82.28
2022-11-28T01:48:03.527Z,82.28
2022-11-28T01:50:36.018Z,82.32
2022-11-28T01:53:09.115Z,83.33
2022-11-28T01:55:53.706Z,83.33
2022-11-28T01:58:23.689Z,84.56
2022-11-28T02:00:53.920Z,85.05
2022-11-28T02:03:29.588Z,88.25
2022-11-28T02:05:59.102Z,88.25
2022-11-28T02:08:30.521Z,87.61
2022-11-28T02:11:27.267Z,88.36
2022-11-28T02:14:32.708Z,88.21
2022-11-28T02:17:05.530Z,88.21
2022-11-28T02:19:55.986Z,87.96
2022-11-28T02:22:37.433Z,88.70
2022-11-28T02:25:14.012Z,88.47
2022-11-28T02:28:12.339Z,89.16
2022-11-28T02:30:50.651Z,88.22
2022-11-28T02:33:26.165Z,88.40
2022-11-28T02:36:16.640Z,88.41
2022-11-28T02:38:52.344Z,88.09
2022-11-28T02:41:36.512Z,88.42
2022-11-28T02:44:16.667Z,88.66
2022-11-28T02:46:49.844Z,89.21
2022-11-28T02:49:34.037Z,88.99
2022-11-28T02:52:19.661Z,89.87
2022-11-28T02:54:51.975Z,90.20
2022-11-28T02:57:22.021Z,89.44
2022-11-28T02:59:52.017Z,90.05
2022-11-28T03:02:28.975Z,89.04
2022-11-28T03:05:04.630Z,89.01
2022-11-28T03:08:03.179Z,89.01
2022-11-28T03:10:47.861Z,89.00
2022-11-28T03:13:20.634Z,89.28
2022-11-28T03:15:59.208Z,88.99
2022-11-28T03:18:34.808Z,89.17
2022-11-28T03:21:19.754Z,90.44
2022-11-28T03:24:04.469Z,89.65
2022-11-28T03:26:46.329Z,88.90
2022-11-28T03:29:22.197Z,89.42
2022-11-28T03:32:01.100Z,89.42
2022-11-28T03:34:36.283Z,89.17
2022-11-28T03:37:14.681Z,89.47
2022-11-28T03:39:47.817Z,88.76
2022-11-28T03:42:25.901Z,88.76
2022-11-28T03:45:13.471Z,89.09
2022-11-28T03:47:47.105Z,88.78
2022-11-28T03:50:22.579Z,89.29
2022-11-28T03:52:59.128Z,89.64
2022-11-28T03:55:40.284Z,90.36
2022-11-28T03:58:19.493Z,90.15
2022-11-28T04:00:54.867Z,89.64
2022-11-28T04:03:30.382Z,90.90
2022-11-28T04:06:08.677Z,90.83
2022-11-28T04:08:42.119Z,91.54
2022-11-28T04:11:41.308Z,90.61
2022-11-28T04:14:29.402Z,91.82
2022-11-28T04:17:04.852Z,91.93
2022-11-28T04:19:40.120Z,91.34
2022-11-28T04:22:17.076Z,91.86
2022-11-28T04:25:01.380Z,92.51
2022-11-28T04:27:34.182Z,91.61
2022-11-28T04:32:53.174Z,91.63
2022-11-28T04:35:28.545Z,91.63
2022-11-28T04:38:00.529Z,92.22
2022-11-28T04:40:33.466Z,91.96
2022-11-28T04:43:11.771Z,91.55
2022-11-28T04:45:47.363Z,91.34
2022-11-28T04:48:17.319Z,91.08
2022-11-28T04:50:50.154Z,92.01
2022-11-28T04:53:28.572Z,92.31
2022-11-28T04:56:01.602Z,92.12
2022-11-28T04:58:45.596Z,92.17
2022-11-28T05:01:20.988Z,92.33
2022-11-28T05:03:51.049Z,92.17
2022-11-28T05:06:26.659Z,91.88
2022-11-28T05:08:56.738Z,92.38
2022-11-28T05:11:27.525Z,92.60
2022-11-28T05:13:57.717Z,92.11
2022-11-28T05:16:27.604Z,92.72
2022-11-28T05:18:57.547Z,92.23
2022-11-28T05:21:27.292Z,91.96
2022-11-28T05:23:57.018Z,92.75
2022-11-28T05:26:26.509Z,92.88
2022-11-28T05:28:57.005Z,92.72
2022-11-28T05:31:26.838Z,92.72
2022-11-28T05:33:57.460Z,93.05
2022-11-28T05:36:26.900Z,93.18
2022-11-28T05:38:56.801Z,93.48
2022-11-28T05:41:29.376Z,92.93
2022-11-28T05:44:00.157Z,92.87
2022-11-28T05:46:30.638Z,93.15
2022-11-28T05:49:00.184Z,93.09
2022-11-28T05:51:29.917Z,92.03
2022-11-28T05:53:59.817Z,91.55
2022-11-28T05:56:29.579Z,92.07
2022-11-28T05:58:59.748Z,91.33
2022-11-28T06:01:31.031Z,92.22
2022-11-28T06:04:01.969Z,92.55
2022-11-28T06:06:33.751Z,92.29
2022-11-28T06:09:04.835Z,91.81
2022-11-28T06:11:35.609Z,91.97
2022-11-28T06:14:06.519Z,91.06
2022-11-28T06:16:36.621Z,91.11
2022-11-28T06:19:07.319Z,91.75
2022-11-28T06:21:37.296Z,91.18
2022-11-28T06:24:08.755Z,91.95
2022-11-28T06:26:38.546Z,91.95
2022-11-28T06:29:08.438Z,91.74
2022-11-28T06:31:38.240Z,92.24
2022-11-28T06:34:12.021Z,92.35
2022-11-28T06:36:41.783Z,91.41
2022-11-28T06:39:15.324Z,91.60
2022-11-28T06:41:45.388Z,91.60
2022-11-28T06:44:16.290Z,91.04
2022-11-28T06:46:46.309Z,91.34
2022-11-28T06:49:16.072Z,91.62
2022-11-28T06:51:45.872Z,91.81
2022-11-28T06:54:15.755Z,91.71
2022-11-28T06:56:45.524Z,91.62
2022-11-28T06:59:15.542Z,91.82
2022-11-28T07:01:45.472Z,92.43
2022-11-28T07:04:15.196Z,92.30
2022-11-28T07:06:44.982Z,92.14
2022-11-28T07:09:14.908Z,92.35
2022-11-28T07:11:44.337Z,92.35
2022-11-28T07:14:14.200Z,92.09
2022-11-28T07:16:44.016Z,91.62
2022-11-28T07:19:13.997Z,92.30
2022-11-28T07:21:43.761Z,92.01
2022-11-28T07:24:13.529Z,91.97
2022-11-28T07:26:43.355Z,92.17
2022-11-28T07:29:15.740Z,90.95
2022-11-28T07:31:45.878Z,90.95
2022-11-28T07:34:15.702Z,91.67
2022-11-28T07:36:45.455Z,91.71
2022-11-28T07:39:17.483Z,91.88
2022-11-28T07:41:47.308Z,91.88
2022-11-28T07:44:19.581Z,92.51
2022-11-28T07:46:49.735Z,91.94
2022-11-28T07:49:19.514Z,91.08
2022-11-28T07:51:49.263Z,91.35
2022-11-28T07:54:19.004Z,91.71
2022-11-28T07:59:20.087Z,91.18
2022-11-28T08:01:49.911Z,91.83
2022-11-28T08:04:19.907Z,92.22
2022-11-28T08:06:49.705Z,91.83
2022-11-28T08:09:19.390Z,92.22
2022-11-28T08:11:50.827Z,92.41
2022-11-28T08:14:20.636Z,91.75
2022-11-28T08:16:51.135Z,92.20
2022-11-28T08:19:24.619Z,91.66
2022-11-28T08:21:52.368Z,91.86
2022-11-28T08:24:22.124Z,92.04
2022-11-28T08:26:51.941Z,91.76
2022-11-28T08:29:21.705Z,91.98
2022-11-28T08:31:51.436Z,92.64
2022-11-28T08:34:20.961Z,92.64
2022-11-28T08:36:50.693Z,91.98
2022-11-28T08:39:24.882Z,91.72
2022-11-28T08:41:51.941Z,91.51
2022-11-28T08:44:21.666Z,92.00
2022-11-28T08:46:51.533Z,92.00
2022-11-28T08:49:21.271Z,91.75
2022-11-28T08:51:51.022Z,92.66
2022-11-28T08:54:20.957Z,92.02
2022-11-28T08:56:50.801Z,91.63
2022-11-28T08:59:20.700Z,91.69
2022-11-28T09:01:50.587Z,92.00
2022-11-28T09:04:20.251Z,92.38
2022-11-28T09:06:50.241Z,92.05
2022-11-28T09:09:21.949Z,92.24
2022-11-28T09:11:51.684Z,91.75
2022-11-28T09:14:21.130Z,91.44
2022-11-28T09:16:51.001Z,90.96
2022-11-28T09:19:20.798Z,91.28
2022-11-28T09:21:56.151Z,91.20
2022-11-28T09:24:21.830Z,91.01
2022-11-28T09:26:51.556Z,92.04
2022-11-28T09:29:21.283Z,91.77
2022-11-28T09:31:51.069Z,91.14
2022-11-28T09:34:21.317Z,91.59
2022-11-28T09:36:51.042Z,91.28
2022-11-28T09:39:20.824Z,91.34
2022-11-28T09:42:05.255Z,91.33
2022-11-28T09:44:47.156Z,91.33
2022-11-28T09:47:19.882Z,91.89
2022-11-28T09:49:52.922Z,91.89
2022-11-28T09:52:28.942Z,91.61
2022-11-28T09:55:02.019Z,91.39
2022-11-28T09:57:34.867Z,91.42
2022-11-28T10:00:08.953Z,91.26
2022-11-28T10:02:43.436Z,91.18
2022-11-28T10:05:40.016Z,91.09
2022-11-28T10:08:47.939Z,90.82
2022-11-28T10:11:38.316Z,91.20
2022-11-28T10:14:12.833Z,90.89
2022-11-28T10:17:04.764Z,90.94
2022-11-28T10:19:53.908Z,91.35
2022-11-28T10:22:17.151Z,91.35
2022-11-28T10:24:55.615Z,91.65
2022-11-28T10:27:28.120Z,91.93
2022-11-28T10:30:03.929Z,92.22
2022-11-28T10:32:34.164Z,91.75
2022-11-28T10:35:07.204Z,91.33
2022-11-28T10:37:39.677Z,91.02
2022-11-28T10:40:20.482Z,90.72
2022-11-28T10:43:07.864Z,90.69
2022-11-28T10:45:43.691Z,90.58
2022-11-28T10:48:39.207Z,90.13
2022-11-28T10:50:53.708Z,89.87
2022-11-28T10:53:47.743Z,89.83
2022-11-28T10:56:32.309Z,89.90
2022-11-28T10:59:05.085Z,90.09
2022-11-28T11:01:37.722Z,89.55
2022-11-28T11:04:18.593Z,89.78
2022-11-28T11:07:22.853Z,89.55
2022-11-28T11:09:50.111Z,89.45
2022-11-28T11:12:25.751Z,90.15
2022-11-28T11:14:55.208Z,89.47
2022-11-28T11:17:38.061Z,89.56
2022-11-28T11:20:36.834Z,89.62
2022-11-28T11:23:21.279Z,89.85
2022-11-28T11:25:58.164Z,90.07
2022-11-28T11:28:36.733Z,89.93
2022-11-28T11:31:10.058Z,89.89
2022-11-28T11:33:40.014Z,89.66
2022-11-28T11:36:23.306Z,89.47
2022-11-28T11:38:54.941Z,89.55
2022-11-28T11:41:33.925Z,90.09
2022-11-28T11:47:00.550Z,90.24
2022-11-28T11:49:42.413Z,90.78
2022-11-28T11:52:18.384Z,91.26
2022-11-28T11:54:59.887Z,90.65
2022-11-28T11:57:38.482Z,90.66
2022-11-28T12:00:18.547Z,90.54
2022-11-28T12:02:54.699Z,90.72
2022-11-28T12:05:28.390Z,90.08
2022-11-28T12:08:04.060Z,89.85
2022-11-28T12:10:37.806Z,90.44
2022-11-28T12:13:09.115Z,89.94
2022-11-28T12:15:47.836Z,89.76
2022-11-28T12:18:38.585Z,89.77
2022-11-28T12:21:17.194Z,89.81
2022-11-28T12:23:58.835Z,90.21
2022-11-28T12:26:43.269Z,89.46
2022-11-28T12:29:24.931Z,89.46
2022-11-28T12:32:15.135Z,90.29
2022-11-28T12:35:24.092Z,89.77
2022-11-28T12:38:19.103Z,90.07
2022-11-28T12:41:00.932Z,89.62
2022-11-28T12:43:57.865Z,90.28
2022-11-28T12:46:33.495Z,89.68
2022-11-28T12:49:09.430Z,90.18
2022-11-28T12:51:41.929Z,90.41
2022-11-28T12:54:23.448Z,89.39
2022-11-28T12:57:07.910Z,89.52
2022-11-28T12:59:43.462Z,89.60
2022-11-28T13:02:22.109Z,90.29
2022-11-28T13:05:00.414Z,89.28
2022-11-28T13:07:41.778Z,89.70
2022-11-28T13:10:18.534Z,89.89
2022-11-28T13:12:56.724Z,89.81
2022-11-28T13:15:45.646Z,89.81
2022-11-28T13:18:18.242Z,89.97
2022-11-28T13:21:07.421Z,89.85
2022-11-28T13:23:55.239Z,90.54
2022-11-28T13:26:42.584Z,89.94
2022-11-28T13:29:17.819Z,90.03
2022-11-28T13:32:19.211Z,90.32
2022-11-28T13:34:50.462Z,89.92
2022-11-28T13:40:19.071Z,89.86
2022-11-28T13:43:10.077Z,89.74
2022-11-28T13:45:39.151Z,90.06
2022-11-28T13:49:13.069Z,89.66
2022-11-28T13:51:31.686Z,90.63
2022-11-28T13:54:21.627Z,90.37
2022-11-28T13:57:10.820Z,90.05
2022-11-28T13:59:40.913Z,91.19
2022-11-28T14:02:23.233Z,91.19
2022-11-28T14:04:53.056Z,91.09
2022-11-28T14:07:25.890Z,90.56
2022-11-28T14:10:10.329Z,90.93
2022-11-28T14:12:43.218Z,91.25
2022-11-28T14:15:28.102Z,91.65
2022-11-28T14:18:39.641Z,90.67
2022-11-28T14:21:05.510Z,90.67
2022-11-28T14:23:40.799Z,90.70
2022-11-28T14:26:25.958Z,90.91
2022-11-28T14:28:55.932Z,91.08
2022-11-28T14:31:34.242Z,90.44
2022-11-28T14:34:09.221Z,90.77
2022-11-28T14:36:42.037Z,91.98
2022-11-28T14:39:19.547Z,90.80
2022-11-28T14:42:09.813Z,90.80
2022-11-28T14:45:03.235Z,90.64
2022-11-28T14:47:34.098Z,90.59
2022-11-28T14:50:10.958Z,90.67
2022-11-28T14:52:42.556Z,90.67
2022-11-28T14:55:16.996Z,90.71
2022-11-28T14:57:55.928Z,90.44
2022-11-28T15:00:43.798Z,90.12
2022-11-28T15:03:38.527Z,90.12
2022-11-28T15:06:21.204Z,90.24
2022-11-28T15:08:56.817Z,90.11
2022-11-28T15:14:24.726Z,89.78
2022-11-28T15:17:00.839Z,90.31
2022-11-28T15:19:33.748Z,90.23
2022-11-28T15:22:05.313Z,90.07
2022-11-28T15:24:39.205Z,89.56
2022-11-28T15:27:13.548Z,89.74
2022-11-28T15:29:45.271Z,89.75
2022-11-28T15:32:16.447Z,90.58
2022-11-28T15:34:49.602Z,90.11
2022-11-28T15:37:20.630Z,90.29
2022-11-28T15:39:50.883Z,90.53
2022-11-28T15:42:29.715Z,90.18
2022-11-28T15:45:02.986Z,90.66
2022-11-28T15:47:33.527Z,90.90
2022-11-28T15:50:13.003Z,90.90
2022-11-28T15:53:00.945Z,90.04
2022-11-28T15:55:34.414Z,90.46
2022-11-28T15:58:23.371Z,90.46
2022-11-28T16:00:56.235Z,89.51
2022-11-28T16:03:28.822Z,90.06
2022-11-28T16:05:59.356Z,90.33
2022-11-28T16:08:34.878Z,89.97
2022-11-28T16:11:05.735Z,90.18
2022-11-28T16:13:35.854Z,90.42
2022-11-28T16:16:12.333Z,89.56
2022-11-28T16:18:53.444Z,89.99
2022-11-28T16:21:29.112Z,90.14
2022-11-28T16:24:00.637Z,90.19
2022-11-28T16:26:38.220Z,90.19
2022-11-28T16:29:14.562Z,89.77
2022-11-28T16:31:44.680Z,89.86
2022-11-28T16:34:15.294Z,89.87
2022-11-28T16:36:48.084Z,89.97
2022-11-28T16:39:19.165Z,90.58
2022-11-28T16:41:54.840Z,90.86
2022-11-28T16:44:26.099Z,90.38
2022-11-28T16:46:58.177Z,90.38
2022-11-28T16:49:39.245Z,90.50
2022-11-28T16:52:26.506Z,90.52
2022-11-28T16:54:57.098Z,90.25
2022-11-28T16:57:32.850Z,90.36
2022-11-28T17:00:00.195Z,90.28
2022-11-28T17:02:29.930Z,89.75
2022-11-28T17:04:59.640Z,89.75
2022-11-28T17:07:29.926Z,90.34
2022-11-28T17:09:59.697Z,90.28
2022-11-28T17:12:33.934Z,90.58
2022-11-28T17:15:04.449Z,90.90
2022-11-28T17:17:36.211Z,90.06
2022-11-28T17:20:08.824Z,90.68
2022-11-28T17:22:44.326Z,90.49
2022-11-28T17:25:18.194Z,90.49
2022-11-28T17:27:52.809Z,91.14
2022-11-28T17:30:22.886Z,90.82
2022-11-28T17:32:52.835Z,90.91
2022-11-28T17:35:25.693Z,91.00
2022-11-28T17:37:55.806Z,90.85
2022-11-28T17:40:34.521Z,90.80
2022-11-28T17:43:04.808Z,91.06
2022-11-28T17:45:36.247Z,90.60
2022-11-28T17:48:08.293Z,90.60
2022-11-28T17:50:38.157Z,90.06
2022-11-28T17:53:10.599Z,90.72
2022-11-28T17:55:42.226Z,90.38
2022-11-28T17:58:21.067Z,90.51
2022-11-28T18:00:56.092Z,90.61
2022-11-28T18:03:24.096Z,90.30
2022-11-28T18:05:55.455Z,90.16
2022-11-28T18:08:25.267Z,90.32
2022-11-28T18:11:06.031Z,90.41
2022-11-28T18:13:36.841Z,90.43
2022-11-28T18:16:11.472Z,89.80
2022-11-28T18:18:41.648Z,90.28
2022-11-28T18:21:12.974Z,90.48
2022-11-28T18:23:44.911Z,90.39
2022-11-28T18:26:16.582Z,90.20
2022-11-28T18:28:46.244Z,90.18
2022-11-28T18:31:24.326Z,90.34
2022-11-28T18:34:01.405Z,90.21
2022-11-28T18:36:28.899Z,90.10
2022-11-28T18:39:01.517Z,90.28
2022-11-28T18:41:32.397Z,90.42
2022-11-28T18:44:05.475Z,89.71
2022-11-28T18:46:36.099Z,90.32
2022-11-28T18:49:05.901Z,90.24
2022-11-28T18:51:36.610Z,90.24
2022-11-28T18:54:10.768Z,90.11
2022-11-28T18:56:40.814Z,90.09
2022-11-28T18:59:11.304Z,90.63
2022-11-28T19:01:42.422Z,91.15
2022-11-28T19:04:15.493Z,91.20
2022-11-28T19:06:47.877Z,91.07
2022-11-28T19:09:18.939Z,90.71
2022-11-28T19:11:48.765Z,90.70
2022-11-28T19:14:21.234Z,90.88
2022-11-28T19:16:52.629Z,91.45
2022-11-28T19:19:22.553Z,91.71
2022-11-28T19:21:52.377Z,91.38
2022-11-28T19:24:21.995Z,91.68
2022-11-28T19:26:52.105Z,90.90
2022-11-28T19:29:22.023Z,90.90
2022-11-28T19:31:52.146Z,91.28
2022-11-28T19:34:22.167Z,91.14
2022-11-28T19:36:52.446Z,91.12
2022-11-28T19:39:25.608Z,91.09
2022-11-28T19:41:56.838Z,91.10
2022-11-28T19:44:29.053Z,90.95
2022-11-28T19:46:58.925Z,90.28
2022-11-28T19:49:29.849Z,90.03
2022-11-28T19:51:59.605Z,90.26
2022-11-28T19:54:29.555Z,90.99
2022-11-28T19:56:59.257Z,91.19
2022-11-28T19:59:30.371Z,92.19
2022-11-28T20:02:02.133Z,93.06
2022-11-28T20:04:32.208Z,92.97
2022-11-28T20:07:01.974Z,92.22
2022-11-28T20:09:32.829Z,91.95
2022-11-28T20:12:02.879Z,91.67
2022-11-28T20:14:32.708Z,92.41
2022-11-28T20:17:02.474Z,92.28
2022-11-28T20:19:33.191Z,92.38
2022-11-28T20:22:02.935Z,92.46
2022-11-28T20:24:32.778Z,91.62
2022-11-28T20:27:02.983Z,92.31
2022-11-28T20:29:33.172Z,91.83
2022-11-28T20:32:03.172Z,91.83
2022-11-28T20:34:32.932Z,91.92
2022-11-28T20:37:02.664Z,92.50
2022-11-28T20:39:32.177Z,92.11
2022-11-28T20:42:02.019Z,92.29
2022-11-28T20:44:31.771Z,91.61
2022-11-28T20:47:01.597Z,91.45
2022-11-28T20:49:31.424Z,91.47
2022-11-28T20:52:01.451Z,91.18
2022-11-28T20:54:31.572Z,90.58
2022-11-28T20:59:33.152Z,90.38
2022-11-28T21:02:02.997Z,89.88
2022-11-28T21:04:32.998Z,90.01
2022-11-28T21:07:02.939Z,89.85
2022-11-28T21:09:32.698Z,89.99
2022-11-28T21:12:02.435Z,89.99
2022-11-28T21:14:32.472Z,90.44
2022-11-28T21:17:02.285Z,90.21
2022-11-28T21:19:32.019Z,90.37
2022-11-28T21:22:01.533Z,90.37
2022-11-28T21:24:31.264Z,90.42
2022-11-28T21:27:00.995Z,89.98
2022-11-28T21:29:30.775Z,89.98
2022-11-28T21:32:00.593Z,89.82
2022-11-28T21:34:30.652Z,90.04
2022-11-28T21:37:00.913Z,89.64
2022-11-28T21:39:30.677Z,89.66
2022-11-28T21:42:01.895Z,89.86
2022-11-28T21:44:31.629Z,89.85
2022-11-28T21:47:01.077Z,89.66
2022-11-28T21:49:30.836Z,89.20
2022-11-28T21:52:00.992Z,89.79
2022-11-28T21:54:30.927Z,90.47
2022-11-28T21:57:00.685Z,89.94
2022-11-28T21:59:30.168Z,89.94
2022-11-28T22:02:00.071Z,89.36
2022-11-28T22:04:30.817Z,89.83
2022-11-28T22:07:00.752Z,89.63
2022-11-28T22:09:30.739Z,89.70
2022-11-28T22:12:01.570Z,89.77
2022-11-28T22:14:36.486Z,90.19
2022-11-28T22:17:03.675Z,89.81
2022-11-28T22:19:33.437Z,89.75
2022-11-28T22:22:03.184Z,89.58
2022-11-28T22:24:33.736Z,89.48
2022-11-28T22:27:05.252Z,89.33
2022-11-28T22:29:35.664Z,89.26
2022-11-28T22:32:06.788Z,89.30
2022-11-28T22:34:39.821Z,88.96
2022-11-28T22:37:08.450Z,89.07
2022-11-28T22:39:38.863Z,88.94
2022-11-28T22:42:10.985Z,88.94
2022-11-28T22:44:41.219Z,88.99
2022-11-28T22:47:11.127Z,88.82
2022-11-28T22:49:41.018Z,89.04
2022-11-28T22:52:11.863Z,88.62
2022-11-28T22:54:41.888Z,88.76
2022-11-28T22:57:12.003Z,88.70
2022-11-28T22:59:41.765Z,88.66
2022-11-28T23:02:12.019Z,88.59
2022-11-28T23:04:42.657Z,88.59
2022-11-28T23:07:12.599Z,88.81
2022-11-28T23:09:42.786Z,88.89
2022-11-28T23:12:12.558Z,88.73
2022-11-28T23:14:43.012Z,88.98
2022-11-28T23:17:12.928Z,89.09
2022-11-28T23:19:42.677Z,88.75
2022-11-28T23:22:12.400Z,88.50
2022-11-28T23:24:42.459Z,88.20
2022-11-28T23:27:12.219Z,88.36
2022-11-28T23:29:42.162Z,88.74
2022-11-28T23:32:11.780Z,89.28
2022-11-28T23:34:42.271Z,89.12
2022-11-28T23:37:13.503Z,89.24
2022-11-28T23:39:43.535Z,89.04
2022-11-28T23:42:15.085Z,88.69
2022-11-28T23:44:45.094Z,88.76
2022-11-28T23:47:15.090Z,89.12
2022-11-28T23:49:44.832Z,89.53
2022-11-28T23:52:14.575Z,89.74
2022-11-28T23:54:44.635Z,89.00
2022-11-28T23:57:14.543Z,89.00
2022-11-28T23:59:44.347Z,89.16
